createdAt,value
2019-05-25T00:00:20.494Z,18.04
2019-05-25T00:01:20.515Z,18.01
2019-05-25T00:02:20.481Z,17.94
2019-05-25T00:03:20.478Z,17.87
2019-05-25T00:04:20.819Z,17.94
2019-05-25T00:05:20.449Z,17.77
2019-05-25T00:06:20.430Z,17.84
2019-05-25T00:07:20.424Z,17.91
2019-05-25T00:08:20.411Z,17.84
2019-05-25T00:09:20.402Z,17.83
2019-05-25T00:10:20.946Z,17.83
2019-05-25T00:11:20.423Z,17.76
2019-05-25T00:12:20.364Z,17.74
2019-05-25T00:13:20.393Z,17.62
2019-05-25T00:14:20.341Z,17.53
2019-05-25T00:15:20.358Z,17.58
2019-05-25T00:16:20.685Z,17.58
2019-05-25T00:17:20.333Z,17.58
2019-05-25T00:18:20.309Z,17.55
2019-05-25T00:19:20.271Z,17.51
2019-05-25T00:20:20.266Z,17.43
2019-05-25T00:21:20.293Z,17.47
2019-05-25T00:22:20.399Z,17.51
2019-05-25T00:23:20.233Z,17.60
2019-05-25T00:24:20.224Z,17.51
2019-05-25T00:25:20.525Z,17.47
2019-05-25T00:26:20.198Z,17.49
2019-05-25T00:27:20.182Z,17.49
2019-05-25T00:28:20.176Z,17.49
2019-05-25T00:29:20.211Z,17.43
2019-05-25T00:30:20.173Z,17.45
2019-05-25T00:31:20.486Z,17.49
2019-05-25T00:32:20.113Z,17.53
2019-05-25T00:33:20.094Z,17.51
2019-05-25T00:34:20.078Z,17.53
2019-05-25T00:35:20.098Z,17.49
2019-05-25T00:36:20.075Z,17.46
2019-05-25T00:37:20.312Z,17.47
2019-05-25T00:38:20.061Z,17.51
2019-05-25T00:39:20.022Z,17.49
2019-05-25T00:40:20.047Z,17.46
2019-05-25T00:41:20.019Z,17.49
2019-05-25T00:42:20.363Z,17.45
2019-05-25T00:43:20.003Z,17.51
2019-05-25T00:44:19.994Z,17.42
2019-05-25T00:45:19.974Z,17.45
2019-05-25T00:46:19.948Z,17.47
2019-05-25T00:47:20.268Z,17.45
2019-05-25T00:48:19.931Z,17.38
2019-05-25T00:49:19.980Z,17.43
2019-05-25T00:50:19.907Z,17.33
2019-05-25T00:51:19.904Z,17.32
2019-05-25T00:52:20.076Z,17.39
2019-05-25T00:53:19.851Z,17.28
2019-05-25T00:54:27.887Z,17.25
2019-05-25T00:55:19.866Z,17.30
2019-05-25T00:56:19.868Z,17.32
2019-05-25T00:57:20.356Z,17.33
2019-05-25T00:58:19.839Z,17.22
2019-05-25T00:59:19.811Z,17.15
2019-05-25T01:00:19.815Z,17.27
2019-05-25T01:01:19.794Z,17.20
2019-05-25T01:02:20.238Z,17.24
2019-05-25T01:03:19.777Z,17.15
2019-05-25T01:04:19.737Z,17.12
2019-05-25T01:05:19.731Z,17.21
2019-05-25T01:06:19.713Z,17.21
2019-05-25T01:07:20.561Z,16.98
2019-05-25T01:08:19.676Z,16.95
2019-05-25T01:09:19.703Z,16.99
2019-05-25T01:10:19.662Z,17.00
2019-05-25T01:11:19.685Z,16.95
2019-05-25T01:12:20.204Z,17.00
2019-05-25T01:13:19.625Z,16.84
2019-05-25T01:14:19.617Z,16.88
2019-05-25T01:15:19.599Z,16.78
2019-05-25T01:16:19.599Z,16.82
2019-05-25T01:17:19.579Z,16.80
2019-05-25T01:18:21.903Z,16.77
2019-05-25T01:19:19.579Z,16.80
2019-05-25T01:20:19.542Z,16.78
2019-05-25T01:21:19.530Z,16.80
2019-05-25T01:22:19.530Z,16.80
2019-05-25T01:23:19.515Z,16.82
2019-05-25T01:24:20.366Z,16.82
2019-05-25T01:25:19.513Z,16.75
2019-05-25T01:26:19.472Z,16.77
2019-05-25T01:27:19.456Z,16.75
2019-05-25T01:28:19.489Z,16.75
2019-05-25T01:29:19.444Z,16.77
2019-05-25T01:30:20.085Z,16.77
2019-05-25T01:31:19.390Z,16.77
2019-05-25T01:32:19.381Z,16.80
2019-05-25T01:33:19.380Z,16.77
2019-05-25T01:34:19.370Z,16.70
2019-05-25T01:35:19.360Z,16.72
2019-05-25T01:36:20.103Z,16.70
2019-05-25T01:37:19.325Z,16.72
2019-05-25T01:38:19.328Z,16.77
2019-05-25T01:39:19.320Z,16.73
2019-05-25T01:40:19.293Z,16.70
2019-05-25T01:41:19.316Z,16.66
2019-05-25T01:42:19.983Z,16.59
2019-05-25T01:43:19.279Z,16.62
2019-05-25T01:44:19.258Z,16.54
2019-05-25T01:45:19.224Z,16.55
2019-05-25T01:46:19.229Z,16.59
2019-05-25T01:47:19.206Z,16.52
2019-05-25T01:48:19.959Z,16.59
2019-05-25T01:49:19.198Z,16.55
2019-05-25T01:50:19.227Z,16.63
2019-05-25T01:51:19.193Z,16.62
2019-05-25T01:52:19.145Z,16.51
2019-05-25T01:53:19.143Z,16.42
2019-05-25T01:54:19.474Z,16.42
2019-05-25T01:55:19.127Z,16.44
2019-05-25T01:56:19.101Z,16.47
2019-05-25T01:57:19.091Z,16.48
2019-05-25T01:58:19.090Z,16.48
2019-05-25T01:59:19.416Z,16.50
2019-05-25T02:00:19.044Z,16.45
2019-05-25T02:01:19.035Z,16.57
2019-05-25T02:02:19.014Z,16.60
2019-05-25T02:03:19.019Z,16.57
2019-05-25T02:04:19.507Z,16.50
2019-05-25T02:05:18.989Z,16.55
2019-05-25T02:06:18.975Z,16.54
2019-05-25T02:07:18.953Z,16.48
2019-05-25T02:08:18.943Z,16.45
2019-05-25T02:09:19.416Z,16.48
2019-05-25T02:10:18.931Z,16.44
2019-05-25T02:11:18.928Z,16.37
2019-05-25T02:12:18.972Z,16.41
2019-05-25T02:13:18.892Z,16.44
2019-05-25T02:14:19.234Z,16.44
2019-05-25T02:15:18.869Z,16.37
2019-05-25T02:16:18.839Z,16.47
2019-05-25T02:17:18.893Z,16.48
2019-05-25T02:18:18.834Z,16.41
2019-05-25T02:19:19.158Z,16.42
2019-05-25T02:20:18.802Z,16.44
2019-05-25T02:21:18.783Z,16.41
2019-05-25T02:22:18.761Z,16.47
2019-05-25T02:23:18.773Z,16.37
2019-05-25T02:24:19.114Z,16.37
2019-05-25T02:25:19.007Z,16.32
2019-05-25T02:26:18.748Z,16.37
2019-05-25T02:27:18.725Z,16.37
2019-05-25T02:28:18.709Z,16.45
2019-05-25T02:29:19.077Z,16.42
2019-05-25T02:30:18.695Z,16.33
2019-05-25T02:31:18.655Z,16.27
2019-05-25T02:32:18.676Z,16.17
2019-05-25T02:33:18.668Z,16.30
2019-05-25T02:34:18.660Z,16.34
2019-05-25T02:35:19.022Z,16.33
2019-05-25T02:36:20.793Z,16.37
2019-05-25T02:37:18.603Z,16.37
2019-05-25T02:38:18.597Z,16.33
2019-05-25T02:39:18.571Z,16.34
2019-05-25T02:40:18.543Z,16.37
2019-05-25T02:41:19.029Z,16.33
2019-05-25T02:42:18.539Z,16.29
2019-05-25T02:43:18.521Z,16.29
2019-05-25T02:44:18.502Z,16.25
2019-05-25T02:45:18.491Z,16.29
2019-05-25T02:46:18.500Z,16.33
2019-05-25T02:47:18.838Z,16.34
2019-05-25T02:48:18.456Z,16.34
2019-05-25T02:49:18.440Z,16.40
2019-05-25T02:50:18.421Z,16.29
2019-05-25T02:51:18.402Z,16.32
2019-05-25T02:52:18.417Z,16.34
2019-05-25T02:53:18.755Z,16.48
2019-05-25T02:54:18.367Z,16.41
2019-05-25T02:55:32.953Z,16.42
2019-05-25T02:56:18.355Z,16.41
2019-05-25T02:57:18.612Z,16.33
2019-05-25T02:58:18.322Z,16.36
2019-05-25T02:59:18.691Z,16.36
2019-05-25T03:00:18.323Z,16.34
2019-05-25T03:01:18.300Z,16.41
2019-05-25T03:02:18.266Z,16.41
2019-05-25T03:03:18.270Z,16.42
2019-05-25T03:04:18.455Z,16.41
2019-05-25T03:05:18.405Z,16.36
2019-05-25T03:06:18.236Z,16.45
2019-05-25T03:07:18.664Z,16.41
2019-05-25T03:08:18.246Z,16.33
2019-05-25T03:09:18.260Z,16.27
2019-05-25T03:10:18.169Z,16.32
2019-05-25T03:11:18.168Z,16.32
2019-05-25T03:12:18.148Z,16.33
2019-05-25T03:13:18.573Z,16.36
2019-05-25T03:14:18.179Z,16.34
2019-05-25T03:15:18.109Z,16.26
2019-05-25T03:16:18.128Z,16.30
2019-05-25T03:17:18.118Z,16.18
2019-05-25T03:18:18.476Z,16.22
2019-05-25T03:19:18.073Z,16.25
2019-05-25T03:20:18.034Z,16.17
2019-05-25T03:21:18.042Z,16.17
2019-05-25T03:22:18.041Z,16.14
2019-05-25T03:23:18.377Z,16.18
2019-05-25T03:24:18.004Z,16.11
2019-05-25T03:25:18.011Z,16.16
2019-05-25T03:26:17.980Z,16.17
2019-05-25T03:27:17.969Z,16.22
2019-05-25T03:28:18.456Z,16.11
2019-05-25T03:29:17.949Z,16.11
2019-05-25T03:30:17.962Z,16.10
2019-05-25T03:31:17.932Z,15.96
2019-05-25T03:32:17.913Z,15.98
2019-05-25T03:33:18.282Z,15.95
2019-05-25T03:34:17.857Z,15.85
2019-05-25T03:35:17.878Z,15.81
2019-05-25T03:36:17.896Z,15.85
2019-05-25T03:37:17.850Z,15.84
2019-05-25T03:38:18.215Z,15.78
2019-05-25T03:39:17.797Z,15.77
2019-05-25T03:40:17.807Z,15.81
2019-05-25T03:41:17.798Z,15.74
2019-05-25T03:42:17.778Z,15.71
2019-05-25T03:43:18.231Z,15.70
2019-05-25T03:44:17.729Z,15.78
2019-05-25T03:45:17.743Z,15.67
2019-05-25T03:46:17.713Z,15.73
2019-05-25T03:47:17.693Z,15.67
2019-05-25T03:48:17.692Z,15.64
2019-05-25T03:49:18.121Z,15.53
2019-05-25T03:50:17.696Z,15.46
2019-05-25T03:51:17.645Z,15.62
2019-05-25T03:52:17.628Z,15.52
2019-05-25T03:53:17.632Z,15.67
2019-05-25T03:54:17.661Z,15.68
2019-05-25T03:55:18.117Z,15.59
2019-05-25T03:56:17.594Z,15.56
2019-05-25T03:57:17.575Z,15.60
2019-05-25T03:58:17.577Z,15.48
2019-05-25T03:59:17.571Z,15.40
2019-05-25T04:00:17.550Z,15.48
2019-05-25T04:01:17.973Z,15.46
2019-05-25T04:02:17.522Z,15.48
2019-05-25T04:03:17.500Z,15.46
2019-05-25T04:04:17.479Z,15.40
2019-05-25T04:05:17.469Z,15.41
2019-05-25T04:06:17.446Z,15.40
2019-05-25T04:07:17.851Z,15.46
2019-05-25T04:08:17.428Z,15.48
2019-05-25T04:09:17.419Z,15.38
2019-05-25T04:10:17.400Z,15.38
2019-05-25T04:11:17.391Z,15.41
2019-05-25T04:12:17.369Z,15.38
2019-05-25T04:13:17.828Z,15.41
2019-05-25T04:14:17.392Z,15.35
2019-05-25T04:15:17.334Z,15.35
2019-05-25T04:16:17.366Z,15.41
2019-05-25T04:17:17.302Z,15.34
2019-05-25T04:18:17.353Z,15.23
2019-05-25T04:19:17.981Z,15.28
2019-05-25T04:20:17.293Z,15.34
2019-05-25T04:21:17.245Z,15.33
2019-05-25T04:22:17.294Z,15.27
2019-05-25T04:23:17.231Z,15.30
2019-05-25T04:24:17.235Z,15.31
2019-05-25T04:25:17.699Z,15.31
2019-05-25T04:26:22.395Z,15.20
2019-05-25T04:27:17.201Z,15.33
2019-05-25T04:28:17.208Z,15.28
2019-05-25T04:29:17.165Z,15.25
2019-05-25T04:30:17.160Z,15.20
2019-05-25T04:31:17.564Z,15.30
2019-05-25T04:32:17.159Z,15.30
2019-05-25T04:33:17.141Z,15.25
2019-05-25T04:34:17.103Z,15.19
2019-05-25T04:35:17.097Z,15.19
2019-05-25T04:36:17.709Z,15.18
2019-05-25T04:37:17.104Z,15.16
2019-05-25T04:38:17.037Z,15.20
2019-05-25T04:39:17.020Z,15.20
2019-05-25T04:40:17.026Z,15.12
2019-05-25T04:41:17.449Z,15.22
2019-05-25T04:42:16.979Z,15.11
2019-05-25T04:43:16.970Z,15.28
2019-05-25T04:44:16.958Z,15.13
2019-05-25T04:45:16.922Z,15.25
2019-05-25T04:46:17.439Z,15.20
2019-05-25T04:47:26.624Z,15.20
2019-05-25T04:48:16.897Z,15.22
2019-05-25T04:49:16.886Z,15.15
2019-05-25T04:50:16.875Z,15.15
2019-05-25T04:51:17.301Z,15.12
2019-05-25T04:52:16.860Z,15.13
2019-05-25T04:53:16.907Z,15.18
2019-05-25T04:54:16.841Z,15.16
2019-05-25T04:55:16.830Z,15.20
2019-05-25T04:56:16.788Z,15.07
2019-05-25T04:57:17.241Z,15.04
2019-05-25T04:58:16.760Z,15.09
2019-05-25T04:59:16.741Z,15.05
2019-05-25T05:00:16.735Z,15.19
2019-05-25T05:01:16.723Z,15.09
2019-05-25T05:02:16.712Z,15.11
2019-05-25T05:03:17.071Z,15.09
2019-05-25T05:04:16.682Z,15.07
2019-05-25T05:05:16.673Z,15.07
2019-05-25T05:06:16.672Z,15.04
2019-05-25T05:07:16.621Z,15.11
2019-05-25T05:08:16.636Z,15.04
2019-05-25T05:09:17.172Z,15.07
2019-05-25T05:10:16.611Z,15.09
2019-05-25T05:11:16.601Z,15.05
2019-05-25T05:12:16.597Z,15.03
2019-05-25T05:13:16.566Z,14.87
2019-05-25T05:14:16.569Z,14.85
2019-05-25T05:15:17.039Z,14.80
2019-05-25T05:16:16.528Z,14.87
2019-05-25T05:17:16.498Z,14.78
2019-05-25T05:18:16.508Z,14.80
2019-05-25T05:19:16.491Z,14.79
2019-05-25T05:20:16.483Z,14.85
2019-05-25T05:21:17.010Z,14.79
2019-05-25T05:22:16.438Z,14.85
2019-05-25T05:23:16.403Z,14.66
2019-05-25T05:24:16.414Z,14.72
2019-05-25T05:25:16.410Z,14.66
2019-05-25T05:26:16.389Z,14.72
2019-05-25T05:27:16.710Z,14.72
2019-05-25T05:28:16.358Z,14.67
2019-05-25T05:29:16.352Z,14.66
2019-05-25T05:30:16.330Z,14.67
2019-05-25T05:31:23.493Z,14.66
2019-05-25T05:32:27.060Z,14.52
2019-05-25T05:33:16.288Z,14.46
2019-05-25T05:34:16.271Z,14.44
2019-05-25T05:35:16.276Z,14.48
2019-05-25T05:36:16.253Z,14.52
2019-05-25T05:37:16.222Z,14.48
2019-05-25T05:38:16.683Z,14.39
2019-05-25T05:39:16.218Z,14.45
2019-05-25T05:40:16.181Z,14.42
2019-05-25T05:41:16.187Z,14.39
2019-05-25T05:42:16.179Z,14.44
2019-05-25T05:43:16.524Z,14.44
2019-05-25T05:44:16.153Z,14.48
2019-05-25T05:45:16.112Z,14.36
2019-05-25T05:46:16.133Z,14.41
2019-05-25T05:47:16.115Z,14.21
2019-05-25T05:48:16.534Z,14.31
2019-05-25T05:49:16.074Z,14.30
2019-05-25T05:50:16.056Z,14.38
2019-05-25T05:51:16.039Z,14.30
2019-05-25T05:52:16.017Z,14.30
2019-05-25T05:53:16.428Z,14.29
2019-05-25T05:54:16.056Z,14.34
2019-05-25T05:55:17.422Z,14.24
2019-05-25T05:56:15.962Z,14.38
2019-05-25T05:57:15.947Z,14.27
2019-05-25T05:58:15.920Z,14.20
2019-05-25T05:59:16.382Z,14.17
2019-05-25T06:00:15.958Z,14.21
2019-05-25T06:01:15.921Z,14.23
2019-05-25T06:02:15.903Z,14.20
2019-05-25T06:03:15.861Z,14.21
2019-05-25T06:04:15.867Z,14.16
2019-05-25T06:05:16.328Z,14.17
2019-05-25T06:06:15.827Z,14.13
2019-05-25T06:07:15.822Z,14.16
2019-05-25T06:08:15.801Z,14.11
2019-05-25T06:09:15.792Z,14.08
2019-05-25T06:10:16.117Z,14.02
2019-05-25T06:11:15.793Z,14.01
2019-05-25T06:12:15.764Z,14.11
2019-05-25T06:13:15.732Z,14.17
2019-05-25T06:14:15.721Z,14.16
2019-05-25T06:15:15.700Z,14.12
2019-05-25T06:16:16.179Z,14.08
2019-05-25T06:17:15.664Z,14.13
2019-05-25T06:18:15.663Z,14.13
2019-05-25T06:19:15.618Z,14.09
2019-05-25T06:20:15.634Z,14.17
2019-05-25T06:21:15.623Z,14.12
2019-05-25T06:22:16.035Z,14.06
2019-05-25T06:23:15.597Z,13.99
2019-05-25T06:24:15.555Z,14.06
2019-05-25T06:25:15.573Z,14.09
2019-05-25T06:26:15.567Z,14.04
2019-05-25T06:27:26.926Z,14.05
2019-05-25T06:28:18.322Z,13.99
2019-05-25T06:29:15.539Z,14.01
2019-05-25T06:30:15.492Z,13.99
2019-05-25T06:31:15.457Z,14.04
2019-05-25T06:32:15.447Z,14.16
2019-05-25T06:33:15.451Z,14.06
2019-05-25T06:34:15.834Z,14.06
2019-05-25T06:35:15.401Z,14.04
2019-05-25T06:36:15.382Z,14.02
2019-05-25T06:37:15.372Z,13.93
2019-05-25T06:38:15.370Z,14.08
2019-05-25T06:39:15.339Z,14.02
2019-05-25T06:40:15.838Z,14.01
2019-05-25T06:41:15.324Z,14.01
2019-05-25T06:42:15.326Z,14.05
2019-05-25T06:43:15.319Z,14.01
2019-05-25T06:44:15.272Z,13.94
2019-05-25T06:45:15.258Z,13.93
2019-05-25T06:46:15.819Z,13.91
2019-05-25T06:47:15.238Z,13.90
2019-05-25T06:48:15.229Z,13.86
2019-05-25T06:49:15.221Z,13.90
2019-05-25T06:50:15.181Z,13.86
2019-05-25T06:51:15.177Z,13.86
2019-05-25T06:52:15.533Z,13.93
2019-05-25T06:53:15.151Z,13.86
2019-05-25T06:54:15.169Z,13.87
2019-05-25T06:55:15.116Z,13.90
2019-05-25T06:56:15.086Z,13.79
2019-05-25T06:57:15.100Z,13.86
2019-05-25T06:58:15.515Z,13.88
2019-05-25T06:59:15.067Z,13.76
2019-05-25T07:00:15.035Z,13.90
2019-05-25T07:01:15.045Z,13.76
2019-05-25T07:02:15.014Z,13.83
2019-05-25T07:03:15.008Z,13.83
2019-05-25T07:04:15.540Z,13.83
2019-05-25T07:05:14.978Z,13.84
2019-05-25T07:06:14.975Z,13.69
2019-05-25T07:07:14.978Z,13.75
2019-05-25T07:08:14.944Z,13.72
2019-05-25T07:09:15.460Z,13.76
2019-05-25T07:10:14.893Z,13.79
2019-05-25T07:11:14.913Z,13.79
2019-05-25T07:12:14.876Z,13.83
2019-05-25T07:13:14.865Z,13.81
2019-05-25T07:14:14.853Z,13.84
2019-05-25T07:15:15.284Z,13.61
2019-05-25T07:16:14.811Z,13.65
2019-05-25T07:17:14.819Z,13.72
2019-05-25T07:18:14.806Z,13.73
2019-05-25T07:19:14.776Z,13.79
2019-05-25T07:20:14.771Z,13.83
2019-05-25T07:21:15.176Z,13.73
2019-05-25T07:22:14.739Z,13.71
2019-05-25T07:23:14.725Z,13.73
2019-05-25T07:24:14.700Z,13.69
2019-05-25T07:25:14.683Z,13.68
2019-05-25T07:26:14.680Z,13.71
2019-05-25T07:27:15.166Z,13.69
2019-05-25T07:28:14.644Z,13.73
2019-05-25T07:29:14.645Z,13.68
2019-05-25T07:30:14.609Z,13.76
2019-05-25T07:31:14.602Z,13.68
2019-05-25T07:32:14.583Z,13.66
2019-05-25T07:33:15.085Z,13.61
2019-05-25T07:34:14.554Z,13.73
2019-05-25T07:35:14.526Z,13.68
2019-05-25T07:36:14.525Z,13.65
2019-05-25T07:37:14.512Z,13.73
2019-05-25T07:38:14.523Z,13.72
2019-05-25T07:39:14.937Z,13.72
2019-05-25T07:40:14.475Z,13.68
2019-05-25T07:41:14.455Z,13.66
2019-05-25T07:42:14.438Z,13.75
2019-05-25T07:43:14.419Z,13.75
2019-05-25T07:44:14.475Z,13.63
2019-05-25T07:45:14.861Z,13.71
2019-05-25T07:46:17.045Z,13.65
2019-05-25T07:47:14.362Z,13.71
2019-05-25T07:48:14.393Z,13.63
2019-05-25T07:49:14.337Z,13.68
2019-05-25T07:50:14.336Z,13.66
2019-05-25T07:51:14.756Z,13.72
2019-05-25T07:52:14.298Z,13.62
2019-05-25T07:53:14.278Z,13.65
2019-05-25T07:54:14.248Z,13.65
2019-05-25T07:55:14.259Z,13.55
2019-05-25T07:56:14.307Z,13.54
2019-05-25T07:57:14.682Z,13.47
2019-05-25T07:58:17.883Z,13.54
2019-05-25T07:59:14.193Z,13.61
2019-05-25T08:00:14.186Z,13.65
2019-05-25T08:01:14.181Z,13.66
2019-05-25T08:02:14.601Z,13.71
2019-05-25T08:03:14.123Z,13.75
2019-05-25T08:04:14.113Z,13.66
2019-05-25T08:05:14.119Z,13.68
2019-05-25T08:06:14.078Z,13.75
2019-05-25T08:07:14.076Z,13.69
2019-05-25T08:08:14.467Z,13.71
2019-05-25T08:09:14.048Z,13.65
2019-05-25T08:10:14.026Z,13.65
2019-05-25T08:11:14.012Z,13.63
2019-05-25T08:12:13.988Z,13.63
2019-05-25T08:13:13.986Z,13.48
2019-05-25T08:14:14.426Z,13.65
2019-05-25T08:15:13.986Z,13.53
2019-05-25T08:16:13.955Z,13.65
2019-05-25T08:17:13.971Z,13.61
2019-05-25T08:18:13.919Z,13.65
2019-05-25T08:19:13.928Z,13.59
2019-05-25T08:20:14.285Z,13.55
2019-05-25T08:21:13.875Z,13.57
2019-05-25T08:22:13.856Z,13.51
2019-05-25T08:23:13.847Z,13.61
2019-05-25T08:24:13.868Z,13.55
2019-05-25T08:25:14.255Z,13.65
2019-05-25T08:26:13.814Z,13.69
2019-05-25T08:27:13.785Z,13.63
2019-05-25T08:28:13.756Z,13.69
2019-05-25T08:29:13.746Z,13.71
2019-05-25T08:30:13.791Z,13.68
2019-05-25T08:31:14.119Z,13.63
2019-05-25T08:32:13.736Z,13.59
2019-05-25T08:33:13.719Z,13.69
2019-05-25T08:34:13.696Z,13.65
2019-05-25T08:35:13.675Z,13.63
2019-05-25T08:36:13.687Z,13.63
2019-05-25T08:37:14.104Z,13.65
2019-05-25T08:38:13.661Z,13.65
2019-05-25T08:39:13.618Z,13.65
2019-05-25T08:40:13.604Z,13.62
2019-05-25T08:41:13.572Z,13.69
2019-05-25T08:42:13.583Z,13.66
2019-05-25T08:43:13.894Z,13.66
2019-05-25T08:44:13.555Z,13.53
2019-05-25T08:45:13.528Z,13.51
2019-05-25T08:46:13.521Z,13.55
2019-05-25T08:47:13.502Z,13.50
2019-05-25T08:48:13.485Z,13.48
2019-05-25T08:49:13.958Z,13.50
2019-05-25T08:50:13.468Z,13.48
2019-05-25T08:51:13.413Z,13.41
2019-05-25T08:52:13.415Z,13.32
2019-05-25T08:53:13.393Z,13.29
2019-05-25T08:54:13.424Z,13.35
2019-05-25T08:55:13.779Z,13.31
2019-05-25T08:56:13.416Z,13.31
2019-05-25T08:57:16.091Z,13.32
2019-05-25T08:58:13.353Z,13.27
2019-05-25T08:59:13.332Z,13.24
2019-05-25T09:00:13.313Z,13.25
2019-05-25T09:01:13.749Z,13.28
2019-05-25T09:02:13.255Z,13.22
2019-05-25T09:03:13.270Z,13.16
2019-05-25T09:04:13.241Z,13.16
2019-05-25T09:05:13.244Z,13.22
2019-05-25T09:06:13.229Z,13.22
2019-05-25T09:07:13.687Z,13.14
2019-05-25T09:08:13.171Z,12.98
2019-05-25T09:09:13.161Z,12.95
2019-05-25T09:10:13.154Z,12.96
2019-05-25T09:11:13.151Z,12.95
2019-05-25T09:12:13.166Z,12.84
2019-05-25T09:13:13.497Z,12.81
2019-05-25T09:14:13.090Z,12.81
2019-05-25T09:15:13.073Z,12.91
2019-05-25T09:16:13.060Z,12.95
2019-05-25T09:17:13.052Z,12.89
2019-05-25T09:18:13.032Z,12.81
2019-05-25T09:19:13.611Z,12.92
2019-05-25T09:20:13.016Z,12.85
2019-05-25T09:21:12.989Z,12.95
2019-05-25T09:22:12.959Z,12.96
2019-05-25T09:23:12.952Z,12.95
2019-05-25T09:24:12.949Z,12.99
2019-05-25T09:25:13.363Z,13.04
2019-05-25T09:26:13.551Z,12.95
2019-05-25T09:27:12.915Z,12.99
2019-05-25T09:28:12.860Z,12.96
2019-05-25T09:29:12.879Z,13.04
2019-05-25T09:30:13.281Z,12.96
2019-05-25T09:31:12.887Z,12.96
2019-05-25T09:32:12.850Z,12.96
2019-05-25T09:33:12.848Z,13.01
2019-05-25T09:34:12.802Z,12.96
2019-05-25T09:35:12.759Z,12.85
2019-05-25T09:36:13.456Z,12.85
2019-05-25T09:37:12.752Z,12.85
2019-05-25T09:38:12.730Z,12.81
2019-05-25T09:39:12.728Z,12.87
2019-05-25T09:40:12.707Z,12.81
2019-05-25T09:41:12.713Z,12.81
2019-05-25T09:42:13.027Z,12.81
2019-05-25T09:43:12.649Z,12.91
2019-05-25T09:44:12.622Z,12.91
2019-05-25T09:45:14.213Z,12.85
2019-05-25T09:46:12.648Z,12.79
2019-05-25T09:47:12.653Z,12.87
2019-05-25T09:48:13.195Z,12.95
2019-05-25T09:49:12.549Z,12.81
2019-05-25T09:50:12.539Z,12.77
2019-05-25T09:51:15.987Z,12.79
2019-05-25T09:52:12.505Z,12.80
2019-05-25T09:53:12.500Z,12.81
2019-05-25T09:54:12.844Z,12.79
2019-05-25T09:55:12.464Z,12.88
2019-05-25T09:56:12.455Z,12.95
2019-05-25T09:57:12.462Z,12.88
2019-05-25T09:58:12.545Z,12.96
2019-05-25T09:59:20.180Z,12.84
2019-05-25T10:00:12.795Z,12.80
2019-05-25T10:01:12.393Z,12.85
2019-05-25T10:02:12.345Z,12.85
2019-05-25T10:03:12.364Z,12.81
2019-05-25T10:04:12.377Z,12.76
2019-05-25T10:05:12.340Z,12.80
2019-05-25T10:06:13.368Z,12.77
2019-05-25T10:07:12.282Z,12.80
2019-05-25T10:08:12.271Z,12.84
2019-05-25T10:09:12.270Z,12.77
2019-05-25T10:10:12.236Z,12.81
2019-05-25T10:11:12.837Z,12.89
2019-05-25T10:12:15.933Z,12.81
2019-05-25T10:13:12.198Z,12.79
2019-05-25T10:14:12.184Z,12.85
2019-05-25T10:15:12.171Z,12.81
2019-05-25T10:16:12.205Z,12.81
2019-05-25T10:17:12.607Z,12.89
2019-05-25T10:18:12.154Z,12.81
2019-05-25T10:19:12.092Z,12.81
2019-05-25T10:20:12.129Z,12.87
2019-05-25T10:21:14.356Z,12.85
2019-05-25T10:22:12.065Z,12.81
2019-05-25T10:23:12.411Z,12.81
2019-05-25T10:24:12.052Z,12.87
2019-05-25T10:25:12.027Z,12.87
2019-05-25T10:26:12.003Z,12.96
2019-05-25T10:27:11.981Z,12.92
2019-05-25T10:28:12.509Z,12.81
2019-05-25T10:29:11.957Z,12.81
2019-05-25T10:30:11.927Z,12.87
2019-05-25T10:31:11.980Z,12.85
2019-05-25T10:32:11.896Z,12.77
2019-05-25T10:33:12.289Z,12.84
2019-05-25T10:34:11.869Z,12.81
2019-05-25T10:35:11.866Z,12.88
2019-05-25T10:36:11.850Z,12.95
2019-05-25T10:37:11.843Z,12.81
2019-05-25T10:38:11.832Z,12.89
2019-05-25T10:39:12.314Z,12.99
2019-05-25T10:40:11.799Z,12.95
2019-05-25T10:41:11.763Z,12.95
2019-05-25T10:42:11.749Z,13.03
2019-05-25T10:43:11.764Z,12.99
2019-05-25T10:44:11.740Z,13.07
2019-05-25T10:45:12.262Z,13.09
2019-05-25T10:46:11.727Z,13.09
2019-05-25T10:47:11.687Z,13.14
2019-05-25T10:48:11.728Z,13.19
2019-05-25T10:49:11.888Z,13.01
2019-05-25T10:50:11.637Z,13.09
2019-05-25T10:51:11.832Z,13.07
2019-05-25T10:52:11.597Z,13.07
2019-05-25T10:53:11.589Z,13.12
2019-05-25T10:54:11.574Z,13.10
2019-05-25T10:55:11.619Z,13.01
2019-05-25T10:56:11.525Z,13.03
2019-05-25T10:57:13.374Z,13.03
2019-05-25T10:58:11.525Z,12.98
2019-05-25T10:59:11.508Z,12.99
2019-05-25T11:00:11.487Z,13.04
2019-05-25T11:01:11.472Z,13.01
2019-05-25T11:02:11.489Z,13.04
2019-05-25T11:03:11.732Z,13.04
2019-05-25T11:04:11.430Z,12.98
2019-05-25T11:05:11.426Z,13.03
2019-05-25T11:06:11.382Z,12.92
2019-05-25T11:07:11.437Z,12.96
2019-05-25T11:08:11.355Z,12.98
2019-05-25T11:09:11.707Z,13.03
2019-05-25T11:10:11.372Z,13.04
2019-05-25T11:11:11.314Z,13.03
2019-05-25T11:12:11.312Z,13.12
2019-05-25T11:13:11.291Z,13.13
2019-05-25T11:14:11.569Z,13.13
2019-05-25T11:15:11.265Z,13.16
2019-05-25T11:16:11.281Z,13.16
2019-05-25T11:17:11.223Z,13.21
2019-05-25T11:18:11.252Z,13.22
2019-05-25T11:19:11.811Z,13.28
2019-05-25T11:20:11.197Z,13.21
2019-05-25T11:21:11.152Z,13.29
2019-05-25T11:22:11.155Z,13.31
2019-05-25T11:23:11.152Z,13.27
2019-05-25T11:24:11.575Z,13.36
2019-05-25T11:25:11.086Z,13.48
2019-05-25T11:26:11.071Z,13.54
2019-05-25T11:27:11.063Z,13.55
2019-05-25T11:28:11.049Z,13.63
2019-05-25T11:29:11.285Z,13.62
2019-05-25T11:30:11.045Z,13.76
2019-05-25T11:31:11.016Z,13.90
2019-05-25T11:32:11.016Z,14.04
2019-05-25T11:33:10.979Z,14.04
2019-05-25T11:34:11.316Z,13.86
2019-05-25T11:35:10.962Z,14.12
2019-05-25T11:36:10.945Z,14.23
2019-05-25T11:37:10.937Z,14.46
2019-05-25T11:38:10.917Z,14.45
2019-05-25T11:39:11.244Z,14.49
2019-05-25T11:40:10.864Z,14.48
2019-05-25T11:41:10.889Z,14.53
2019-05-25T11:42:10.858Z,14.69
2019-05-25T11:43:10.838Z,14.61
2019-05-25T11:44:10.827Z,14.66
2019-05-25T11:45:11.268Z,14.83
2019-05-25T11:46:10.801Z,14.74
2019-05-25T11:47:10.773Z,14.74
2019-05-25T11:48:10.781Z,14.53
2019-05-25T11:49:22.182Z,14.66
2019-05-25T11:50:10.758Z,14.80
2019-05-25T11:51:11.134Z,15.16
2019-05-25T11:52:10.731Z,14.95
2019-05-25T11:53:10.719Z,14.90
2019-05-25T11:54:10.703Z,15.00
2019-05-25T11:55:10.668Z,15.11
2019-05-25T11:56:10.673Z,15.19
2019-05-25T11:57:11.141Z,15.28
2019-05-25T11:58:10.628Z,15.40
2019-05-25T11:59:10.633Z,15.49
2019-05-25T12:00:23.720Z,15.52
2019-05-25T12:01:10.612Z,15.55
2019-05-25T12:02:10.588Z,15.68
2019-05-25T12:03:10.857Z,15.77
2019-05-25T12:04:10.561Z,15.67
2019-05-25T12:05:10.535Z,15.88
2019-05-25T12:06:10.522Z,15.89
2019-05-25T12:07:10.512Z,15.93
2019-05-25T12:08:10.513Z,16.11
2019-05-25T12:09:10.886Z,16.14
2019-05-25T12:10:10.484Z,16.29
2019-05-25T12:11:10.453Z,16.50
2019-05-25T12:12:10.457Z,16.54
2019-05-25T12:13:10.428Z,16.32
2019-05-25T12:14:10.427Z,15.91
2019-05-25T12:15:10.781Z,15.40
2019-05-25T12:16:10.427Z,15.56
2019-05-25T12:17:10.395Z,15.64
2019-05-25T12:18:10.379Z,15.74
2019-05-25T12:19:10.352Z,15.86
2019-05-25T12:20:10.353Z,15.66
2019-05-25T12:21:10.694Z,15.44
2019-05-25T12:22:10.347Z,15.60
2019-05-25T12:23:10.416Z,15.58
2019-05-25T12:24:10.284Z,15.23
2019-05-25T12:25:10.276Z,15.37
2019-05-25T12:26:10.463Z,15.33
2019-05-25T12:27:10.253Z,15.41
2019-05-25T12:28:10.244Z,15.48
2019-05-25T12:29:10.241Z,15.40
2019-05-25T12:30:10.229Z,15.44
2019-05-25T12:31:10.863Z,15.46
2019-05-25T12:32:10.194Z,15.68
2019-05-25T12:33:10.184Z,15.62
2019-05-25T12:34:10.170Z,15.44
2019-05-25T12:35:10.165Z,15.49
2019-05-25T12:36:10.136Z,15.37
2019-05-25T12:37:10.547Z,15.53
2019-05-25T12:38:10.120Z,15.71
2019-05-25T12:39:10.090Z,15.85
2019-05-25T12:40:10.092Z,15.85
2019-05-25T12:41:10.081Z,15.85
2019-05-25T12:42:10.320Z,15.99
2019-05-25T12:43:10.063Z,15.86
2019-05-25T12:44:10.056Z,15.89
2019-05-25T12:45:10.036Z,16.04
2019-05-25T12:46:10.007Z,16.08
2019-05-25T12:47:10.499Z,15.99
2019-05-25T12:48:10.028Z,16.03
2019-05-25T12:49:09.969Z,16.16
2019-05-25T12:50:09.981Z,16.29
2019-05-25T12:51:09.971Z,16.30
2019-05-25T12:52:10.136Z,16.40